createdAt,value
2022-11-16T00:02:05.788Z,99129.56
2022-11-16T00:02:56.033Z,99130.41
2022-11-16T00:03:43.553Z,99120.66
2022-11-16T00:04:31.213Z,99122.94
2022-11-16T00:05:22.015Z,99116.91
2022-11-16T00:06:14.651Z,99119.53
2022-11-16T00:07:07.382Z,99117.31
2022-11-16T00:07:55.751Z,99114.63
2022-11-16T00:09:07.157Z,99121.22
2022-11-16T00:11:07.826Z,99117.97
2022-11-16T00:11:57.260Z,99110.75
2022-11-16T00:12:44.246Z,99108.09
2022-11-16T00:13:33.091Z,99108.09
2022-11-16T00:14:20.615Z,99105.22
2022-11-16T00:15:07.771Z,99103.31
2022-11-16T00:15:56.362Z,99101.87
2022-11-16T00:16:43.300Z,99101.25
2022-11-16T00:17:30.215Z,99104.59
2022-11-16T00:18:17.606Z,99103.53
2022-11-16T00:19:06.050Z,99106.22
2022-11-16T00:19:53.235Z,99095.25
2022-11-16T00:20:40.067Z,99103.34
2022-11-16T00:21:27.709Z,99108.28
2022-11-16T00:22:14.584Z,99102.91
2022-11-16T00:23:01.436Z,99100.84
2022-11-16T00:23:48.462Z,99100.66
2022-11-16T00:24:35.705Z,99093.78
2022-11-16T00:25:22.603Z,99099.97
2022-11-16T00:26:10.613Z,99092.06
2022-11-16T00:26:57.528Z,99093.75
2022-11-16T00:27:44.949Z,99089.62
2022-11-16T00:28:32.174Z,99089.22
2022-11-16T00:29:21.426Z,99087.31
2022-11-16T00:31:05.350Z,99094.37
2022-11-16T00:31:52.830Z,99087.59
2022-11-16T00:32:39.618Z,99087.59
2022-11-16T00:33:26.663Z,99087.59
2022-11-16T00:34:13.683Z,99091.47
2022-11-16T00:35:01.452Z,99096.88
2022-11-16T00:35:50.242Z,99096.22
2022-11-16T00:36:37.146Z,99090.66
2022-11-16T00:37:23.913Z,99088.41
2022-11-16T00:38:12.206Z,99087.81
2022-11-16T00:39:00.813Z,99088.38
2022-11-16T00:39:49.371Z,99093.31
2022-11-16T00:40:36.851Z,99091.44
2022-11-16T00:41:24.332Z,99095.03
2022-11-16T00:42:12.872Z,99094.13
2022-11-16T00:43:01.292Z,99092.94
2022-11-16T00:43:50.034Z,99092.28
2022-11-16T00:44:37.776Z,99091.44
2022-11-16T00:45:25.414Z,99089.78
2022-11-16T00:46:13.931Z,99093.53
2022-11-16T00:47:01.044Z,99084.88
2022-11-16T00:48:00.625Z,99087.37
2022-11-16T00:48:48.175Z,99096.69
2022-11-16T00:49:36.245Z,99087.37
2022-11-16T00:50:23.227Z,99081.09
2022-11-16T00:51:11.541Z,99086.44
2022-11-16T00:51:59.288Z,99080.25
2022-11-16T00:52:47.185Z,99086.25
2022-11-16T00:53:35.076Z,99082.72
2022-11-16T00:54:27.453Z,99082.62
2022-11-16T00:55:17.503Z,99083.03
2022-11-16T00:56:06.336Z,99085.09
2022-11-16T00:56:56.046Z,99077.59
2022-11-16T00:57:45.814Z,99078.25
2022-11-16T00:58:36.889Z,99080.31
2022-11-16T00:59:27.034Z,99078.44
2022-11-16T01:00:18.317Z,99072.22
2022-11-16T01:01:12.733Z,99069.72
2022-11-16T01:02:02.707Z,99068.44
2022-11-16T01:02:54.873Z,99065.94
2022-11-16T01:03:50.192Z,99068.44
2022-11-16T01:04:41.756Z,99064.91
2022-11-16T01:05:29.345Z,99057.84
2022-11-16T01:06:18.837Z,99063.06
2022-11-16T01:07:08.169Z,99055.16
2022-11-16T01:07:58.744Z,99057.44
2022-11-16T01:08:49.081Z,99052.69
2022-11-16T01:09:38.764Z,99058.69
2022-11-16T01:10:30.618Z,99052.50
2022-11-16T01:11:38.322Z,99052.78
2022-11-16T01:12:28.059Z,99039.28
2022-11-16T01:13:18.596Z,99041.72
2022-11-16T01:14:11.566Z,99034.28
2022-11-16T01:15:04.348Z,99028.91
2022-11-16T01:15:54.723Z,99035.38
2022-11-16T01:16:44.776Z,99031.81
2022-11-16T01:17:34.281Z,99028.25
2022-11-16T01:18:25.629Z,99026.06
2022-11-16T01:19:14.804Z,99024.91
2022-11-16T01:20:06.938Z,99026.06
2022-11-16T01:20:55.568Z,99023.34
2022-11-16T01:21:46.330Z,99023.44
2022-11-16T01:22:42.616Z,99025.94
2022-11-16T01:23:35.649Z,99028.81
2022-11-16T01:24:25.620Z,99022.38
2022-11-16T01:25:18.434Z,99021.72
2022-11-16T01:26:07.064Z,99016.91
2022-11-16T01:26:59.797Z,99023.72
2022-11-16T01:27:51.943Z,99021.22
2022-11-16T01:28:43.346Z,99021.44
2022-11-16T01:29:35.495Z,99019.41
2022-11-16T01:30:25.362Z,99024.75
2022-11-16T01:31:15.933Z,99026.19
2022-11-16T01:32:05.389Z,99017.28
2022-11-16T01:32:57.425Z,99020.44
2022-11-16T01:33:49.525Z,99024.38
2022-11-16T01:34:38.960Z,99021.62
2022-11-16T01:35:29.633Z,99021.62
2022-11-16T01:36:17.947Z,99020.78
2022-11-16T01:37:08.537Z,99024.38
2022-11-16T01:37:59.116Z,99022.50
2022-11-16T01:38:49.130Z,99019.16
2022-11-16T01:39:38.815Z,99018.34
2022-11-16T01:40:33.178Z,99020.41
2022-11-16T01:41:26.875Z,99012.06
2022-11-16T01:42:25.965Z,99015.00
2022-11-16T01:43:25.672Z,99011.03
2022-11-16T01:44:35.065Z,99018.94
2022-11-16T01:45:53.603Z,99018.03
2022-11-16T01:46:43.661Z,99017.25
2022-11-16T01:47:34.553Z,99013.53
2022-11-16T01:48:31.730Z,99012.50
2022-11-16T01:49:24.996Z,99015.44
2022-11-16T01:50:18.899Z,99015.66
2022-11-16T01:51:09.292Z,99016.28
2022-11-16T01:52:02.434Z,99015.66
2022-11-16T01:53:00.757Z,99011.09
2022-11-16T01:53:51.945Z,99008.97
2022-11-16T01:54:46.014Z,99014.78
2022-11-16T01:55:36.819Z,99011.09
2022-11-16T01:56:27.886Z,99008.25
2022-11-16T01:57:26.600Z,99006.34
2022-11-16T01:58:22.636Z,99007.78
2022-11-16T01:59:13.533Z,99004.50
2022-11-16T02:00:07.028Z,99006.38
2022-11-16T02:00:56.546Z,98999.09
2022-11-16T02:01:47.304Z,99007.19
2022-11-16T02:02:37.334Z,99010.81
2022-11-16T02:03:27.468Z,99007.25
2022-11-16T02:04:17.537Z,99006.62
2022-11-16T02:05:08.363Z,99008.31
2022-11-16T02:06:14.934Z,99008.31
2022-11-16T02:07:18.329Z,99006.38
2022-11-16T02:08:36.748Z,99004.50
2022-11-16T02:09:59.409Z,99002.28
2022-11-16T02:10:47.960Z,99005.53
2022-11-16T02:11:57.020Z,99001.87
2022-11-16T02:12:54.839Z,99009.87
2022-11-16T02:14:16.805Z,99004.09
2022-11-16T02:15:33.365Z,99005.28
2022-11-16T02:16:41.806Z,98998.28
2022-11-16T02:18:07.226Z,98992.25
2022-11-16T02:19:15.144Z,99003.88
2022-11-16T02:20:35.076Z,98996.41
2022-11-16T02:21:46.775Z,98994.00
2022-11-16T02:22:58.502Z,98989.03
2022-11-16T02:24:23.559Z,98989.38
2022-11-16T02:25:31.008Z,98987.34
2022-11-16T02:26:32.127Z,98981.84
2022-11-16T02:27:39.686Z,98991.12
2022-11-16T02:28:37.033Z,98987.19
2022-11-16T02:29:36.276Z,98982.44
2022-11-16T02:30:28.667Z,98984.06
2022-11-16T02:31:22.387Z,98979.69
2022-11-16T02:32:16.775Z,98981.66
2022-11-16T02:33:13.131Z,98979.03
2022-11-16T02:34:02.295Z,98976.56
2022-11-16T02:35:15.210Z,98970.78
2022-11-16T02:36:06.624Z,98971.81
2022-11-16T02:36:57.970Z,98977.56
2022-11-16T02:37:50.709Z,98970.25
2022-11-16T02:38:49.500Z,98970.25
2022-11-16T02:39:42.014Z,98963.19
2022-11-16T02:40:33.726Z,98953.88
2022-11-16T02:41:23.908Z,98953.91
2022-11-16T02:42:17.467Z,98958.03
2022-11-16T02:43:13.135Z,98958.63
2022-11-16T02:44:12.939Z,98957.00
2022-11-16T02:45:07.512Z,98948.03
2022-11-16T02:46:00.782Z,98945.12
2022-11-16T02:46:52.626Z,98953.66
2022-11-16T02:47:44.567Z,98950.31
2022-11-16T02:48:42.919Z,98943.25
2022-11-16T02:49:35.794Z,98948.63
2022-11-16T02:50:25.941Z,98943.66
2022-11-16T02:51:15.180Z,98945.31
2022-11-16T02:52:07.588Z,98939.31
2022-11-16T02:52:56.218Z,98935.59
2022-11-16T02:54:08.997Z,98935.16
2022-11-16T02:54:57.664Z,98935.84
2022-11-16T02:55:47.284Z,98936.25
2022-11-16T02:57:00.527Z,98935.84
2022-11-16T02:57:59.651Z,98931.50
2022-11-16T02:58:49.391Z,98928.56
2022-11-16T02:59:47.605Z,98927.53
2022-11-16T03:00:59.625Z,98927.13
2022-11-16T03:02:08.363Z,98922.78
2022-11-16T03:03:29.915Z,98929.19
2022-11-16T03:04:48.250Z,98930.88
2022-11-16T03:05:49.277Z,98924.00
2022-11-16T03:06:53.705Z,98920.69
2022-11-16T03:07:57.984Z,98915.25
2022-11-16T03:08:55.658Z,98909.03
2022-11-16T03:09:47.103Z,98913.44
2022-11-16T03:10:57.543Z,98913.81
2022-11-16T03:12:01.836Z,98911.97
2022-11-16T03:12:50.363Z,98908.69
2022-11-16T03:13:40.214Z,98910.31
2022-11-16T03:14:39.415Z,98912.19
2022-11-16T03:15:29.365Z,98912.63
2022-11-16T03:16:50.484Z,98912.00
2022-11-16T03:18:00.091Z,98915.34
2022-11-16T03:18:50.950Z,98907.62
2022-11-16T03:19:51.255Z,98913.44
2022-11-16T03:20:39.647Z,98907.59
2022-11-16T03:21:58.689Z,98909.47
2022-11-16T03:22:51.612Z,98910.06
2022-11-16T03:23:42.040Z,98903.66
2022-11-16T03:24:33.386Z,98909.31
2022-11-16T03:25:25.953Z,98901.84
2022-11-16T03:26:19.019Z,98906.59
2022-11-16T03:27:26.590Z,98901.19
2022-11-16T03:28:20.348Z,98904.31
2022-11-16T03:29:14.931Z,98909.91
2022-11-16T03:30:11.328Z,98908.88
2022-11-16T03:31:20.649Z,98903.03
2022-11-16T03:32:14.345Z,98903.47
2022-11-16T03:33:09.355Z,98898.31
2022-11-16T03:33:59.056Z,98901.19
2022-11-16T03:34:55.243Z,98900.78
2022-11-16T03:35:59.594Z,98899.78
2022-11-16T03:36:48.501Z,98903.87
2022-11-16T03:37:35.940Z,98902.03
2022-11-16T03:38:23.668Z,98899.78
2022-11-16T03:39:28.200Z,98900.59
2022-11-16T03:40:16.984Z,98897.47
2022-11-16T03:41:07.291Z,98890.19
2022-11-16T03:42:11.491Z,98902.66
2022-11-16T03:43:00.010Z,98896.81
2022-11-16T03:43:47.414Z,98896.19
2022-11-16T03:44:35.356Z,98891.25
2022-11-16T03:45:22.259Z,98897.88
2022-11-16T03:46:09.464Z,98887.91
2022-11-16T03:46:56.478Z,98886.06
2022-11-16T03:47:43.282Z,98893.13
2022-11-16T03:48:37.694Z,98885.59
2022-11-16T03:49:24.517Z,98884.78
2022-11-16T03:50:11.778Z,98884.41
2022-11-16T03:50:58.725Z,98879.81
2022-11-16T03:51:45.558Z,98879.22
2022-11-16T03:52:32.443Z,98881.72
2022-11-16T03:53:19.305Z,98879.63
2022-11-16T03:54:06.210Z,98878.75
2022-11-16T03:54:53.000Z,98876.97
2022-11-16T03:55:39.834Z,98874.44
2022-11-16T03:56:26.668Z,98876.47
2022-11-16T03:57:17.658Z,98874.44
2022-11-16T03:58:05.137Z,98876.06
2022-11-16T03:58:51.933Z,98871.47
2022-11-16T03:59:38.743Z,98875.44
2022-11-16T04:00:25.572Z,98873.37
2022-11-16T04:01:12.370Z,98871.53
2022-11-16T04:01:59.215Z,98871.72
2022-11-16T04:02:46.143Z,98874.00
2022-11-16T04:03:32.942Z,98875.88
2022-11-16T04:04:38.505Z,98868.59
2022-11-16T04:05:43.995Z,98874.63
2022-11-16T04:06:49.614Z,98870.53
2022-11-16T04:07:55.205Z,98866.81
2022-11-16T04:09:00.952Z,98873.63
2022-11-16T04:10:06.560Z,98870.06
2022-11-16T04:11:12.068Z,98871.56
2022-11-16T04:12:17.569Z,98867.38
2022-11-16T04:13:23.220Z,98875.06
2022-11-16T04:14:33.849Z,98868.84
2022-11-16T04:15:39.359Z,98874.81
2022-11-16T04:16:44.621Z,98873.00
2022-11-16T04:17:50.540Z,98869.69
2022-11-16T04:18:55.997Z,98870.50
2022-11-16T04:20:01.662Z,98874.44
2022-11-16T04:21:07.179Z,98869.91
2022-11-16T04:22:15.804Z,98865.78
2022-11-16T04:23:28.025Z,98864.91
2022-11-16T04:24:17.641Z,98865.94
2022-11-16T04:25:17.706Z,98864.97
2022-11-16T04:26:07.577Z,98847.56
2022-11-16T04:27:16.102Z,98860.00
2022-11-16T04:28:16.709Z,98862.06
2022-11-16T04:29:03.613Z,98857.69
2022-11-16T04:29:50.643Z,98857.87
2022-11-16T04:31:06.565Z,98850.03
2022-11-16T04:32:12.190Z,98851.66
2022-11-16T04:33:17.918Z,98856.63
2022-11-16T04:34:23.581Z,98860.53
2022-11-16T04:35:29.054Z,98854.16
2022-11-16T04:36:35.375Z,98854.53
2022-11-16T04:37:41.158Z,98847.91
2022-11-16T04:38:27.917Z,98850.22
2022-11-16T04:39:14.813Z,98841.13
2022-11-16T04:40:01.603Z,98844.44
2022-11-16T04:40:48.558Z,98838.19
2022-11-16T04:41:54.148Z,98843.75
2022-11-16T04:42:41.423Z,98838.97
2022-11-16T04:43:28.236Z,98837.09
2022-11-16T04:44:15.111Z,98833.41
2022-11-16T04:45:20.539Z,98830.50
2022-11-16T04:46:26.307Z,98833.22
2022-11-16T04:47:13.251Z,98834.03
2022-11-16T04:48:00.156Z,98829.06
2022-11-16T04:48:47.003Z,98820.78
2022-11-16T04:49:34.051Z,98826.78
2022-11-16T04:50:21.148Z,98827.22
2022-11-16T04:51:07.979Z,98830.69
2022-11-16T04:51:54.917Z,98820.97
2022-11-16T04:52:41.709Z,98818.91
2022-11-16T04:53:28.491Z,98820.16
2022-11-16T04:54:15.482Z,98815.81
2022-11-16T04:55:02.446Z,98814.38
2022-11-16T04:55:51.258Z,98818.91
2022-11-16T04:56:38.191Z,98818.50
2022-11-16T04:57:25.003Z,98816.62
2022-11-16T04:58:12.015Z,98817.06
2022-11-16T04:58:58.919Z,98808.34
2022-11-16T04:59:45.823Z,98815.56
2022-11-16T05:00:32.719Z,98823.62
2022-11-16T05:01:39.587Z,98829.25
2022-11-16T05:02:26.698Z,98828.38
2022-11-16T05:03:13.578Z,98817.88
2022-11-16T05:04:00.423Z,98824.94
2022-11-16T05:04:47.354Z,98820.78
2022-11-16T05:05:34.184Z,98815.00
2022-11-16T05:06:21.077Z,98812.87
2022-11-16T05:07:13.651Z,98813.72
2022-11-16T05:08:00.678Z,98811.25
2022-11-16T05:08:47.506Z,98812.06
2022-11-16T05:09:34.297Z,98808.56
2022-11-16T05:10:21.870Z,98816.41
2022-11-16T05:11:09.789Z,98818.28
2022-11-16T05:11:57.325Z,98809.34
2022-11-16T05:12:44.712Z,98819.50
2022-11-16T05:13:36.511Z,98820.78
2022-11-16T05:14:23.923Z,98822.22
2022-11-16T05:15:11.225Z,98817.69
2022-11-16T05:15:58.582Z,98816.03
2022-11-16T05:16:45.793Z,98816.66
2022-11-16T05:17:33.187Z,98814.38
2022-11-16T05:18:20.485Z,98813.75
2022-11-16T05:19:40.551Z,98812.22
2022-11-16T05:20:46.725Z,98821.56
2022-11-16T05:21:34.811Z,98817.88
2022-11-16T05:22:22.143Z,98812.87
2022-11-16T05:23:31.177Z,98816.62
2022-11-16T05:24:35.854Z,98813.94
2022-11-16T05:25:24.573Z,98813.72
2022-11-16T05:26:11.726Z,98803.97
2022-11-16T05:26:58.673Z,98811.69
2022-11-16T05:27:45.451Z,98806.91
2022-11-16T05:28:32.561Z,98810.81
2022-11-16T05:29:19.746Z,98813.50
2022-11-16T05:30:07.903Z,98814.97
2022-11-16T05:30:54.841Z,98816.44
2022-11-16T05:31:41.841Z,98813.50
2022-11-16T05:32:28.750Z,98814.53
2022-11-16T05:33:16.737Z,98813.94
2022-11-16T05:34:03.848Z,98817.88
2022-11-16T05:34:50.770Z,98812.69
2022-11-16T05:35:37.710Z,98810.81
2022-11-16T05:36:24.684Z,98814.75
2022-11-16T05:37:12.013Z,98819.94
2022-11-16T05:37:58.975Z,98806.47
2022-11-16T05:38:45.947Z,98813.13
2022-11-16T05:39:32.949Z,98811.47
2022-11-16T05:40:19.812Z,98815.22
2022-11-16T05:41:06.742Z,98807.34
2022-11-16T05:41:54.227Z,98813.97
2022-11-16T05:42:41.198Z,98805.50
2022-11-16T05:43:29.710Z,98809.00
2022-11-16T05:44:17.045Z,98810.63
2022-11-16T05:45:04.261Z,98809.00
2022-11-16T05:45:51.113Z,98811.06
2022-11-16T05:46:38.131Z,98812.53
2022-11-16T05:47:25.058Z,98810.28
2022-11-16T05:48:12.236Z,98810.03
2022-11-16T05:48:59.242Z,98801.38
2022-11-16T05:49:46.259Z,98808.59
2022-11-16T05:50:34.175Z,98802.00
2022-11-16T05:51:23.153Z,98805.09
2022-11-16T05:52:10.132Z,98797.63
2022-11-16T05:52:57.151Z,98795.75
2022-11-16T05:53:44.705Z,98799.28
2022-11-16T05:54:31.708Z,98798.88
2022-11-16T05:55:18.856Z,98801.59
2022-11-16T05:56:06.253Z,98797.84
2022-11-16T05:56:54.490Z,98802.63
2022-11-16T05:57:43.544Z,98800.78
2022-11-16T05:58:30.869Z,98804.69
2022-11-16T05:59:19.831Z,98800.53
2022-11-16T06:00:07.493Z,98798.91
2022-11-16T06:00:54.347Z,98798.03
2022-11-16T06:01:51.709Z,98795.72
2022-11-16T06:02:40.690Z,98798.22
2022-11-16T06:03:31.386Z,98803.81
2022-11-16T06:04:24.444Z,98793.25
2022-11-16T06:05:11.933Z,98794.31
2022-11-16T06:05:59.316Z,98800.50
2022-11-16T06:06:46.349Z,98802.16
2022-11-16T06:07:34.393Z,98804.63
2022-11-16T06:08:21.887Z,98795.94
2022-11-16T06:09:10.749Z,98809.63
2022-11-16T06:09:57.657Z,98801.31
2022-11-16T06:10:44.644Z,98799.88
2022-11-16T06:11:35.794Z,98802.81
2022-11-16T06:12:23.348Z,98800.47
2022-11-16T06:13:10.196Z,98802.72
2022-11-16T06:13:57.203Z,98802.34
2022-11-16T06:14:44.204Z,98800.06
2022-11-16T06:15:31.366Z,98798.44
2022-11-16T06:16:18.397Z,98796.16
2022-11-16T06:17:05.351Z,98793.47
2022-11-16T06:17:52.216Z,98798.63
2022-11-16T06:18:44.278Z,98794.88
2022-11-16T06:19:32.637Z,98787.81
2022-11-16T06:20:19.819Z,98792.03
2022-11-16T06:21:07.549Z,98787.88
2022-11-16T06:21:54.636Z,98795.34
2022-11-16T06:22:41.478Z,98788.47
2022-11-16T06:23:28.542Z,98785.56
2022-11-16T06:24:15.601Z,98780.63
2022-11-16T06:25:02.713Z,98787.03
2022-11-16T06:25:56.093Z,98776.03
2022-11-16T06:26:43.095Z,98783.06
2022-11-16T06:27:30.260Z,98778.50
2022-11-16T06:28:17.107Z,98783.47
2022-11-16T06:29:04.544Z,98784.28
2022-11-16T06:29:51.462Z,98788.25
2022-11-16T06:30:40.538Z,98787.41
2022-11-16T06:31:27.568Z,98779.34
2022-11-16T06:32:14.985Z,98780.63
2022-11-16T06:33:02.117Z,98785.16
2022-11-16T06:33:49.153Z,98779.78
2022-11-16T06:34:36.134Z,98781.87
2022-11-16T06:35:23.221Z,98780.41
2022-11-16T06:36:10.269Z,98790.78
2022-11-16T06:36:57.750Z,98782.91
2022-11-16T06:37:44.648Z,98781.87
2022-11-16T06:38:31.866Z,98785.59
2022-11-16T06:39:19.114Z,98785.59
2022-11-16T06:40:06.849Z,98785.41
2022-11-16T06:40:55.596Z,98785.78
2022-11-16T06:41:42.605Z,98785.00
2022-11-16T06:42:29.957Z,98779.59
2022-11-16T06:43:16.847Z,98778.56
2022-11-16T06:44:03.857Z,98776.69
2022-11-16T06:44:51.235Z,98775.84
2022-11-16T06:45:38.773Z,98780.19
2022-11-16T06:46:26.143Z,98779.75
2022-11-16T06:47:13.230Z,98778.12
2022-11-16T06:48:00.282Z,98772.13
2022-11-16T06:48:47.225Z,98769.69
2022-11-16T06:49:34.545Z,98766.75
2022-11-16T06:50:21.574Z,98768.19
2022-11-16T06:51:08.615Z,98763.03
2022-11-16T06:51:55.986Z,98760.53
2022-11-16T06:52:43.084Z,98759.09
2022-11-16T06:53:30.054Z,98755.97
2022-11-16T06:54:16.853Z,98765.91
2022-11-16T06:55:03.887Z,98767.38
2022-11-16T06:55:50.783Z,98765.94
2022-11-16T06:56:37.816Z,98768.88
2022-11-16T06:57:24.769Z,98766.16
2022-11-16T06:58:12.769Z,98764.06
2022-11-16T06:58:59.761Z,98767.56
2022-11-16T06:59:46.695Z,98765.31
2022-11-16T07:00:33.787Z,98761.59
2022-11-16T07:01:20.759Z,98759.91
2022-11-16T07:02:07.824Z,98763.84
2022-11-16T07:02:54.880Z,98756.38
2022-11-16T07:03:41.944Z,98751.00
2022-11-16T07:04:28.972Z,98755.97
2022-11-16T07:05:18.412Z,98750.59
2022-11-16T07:06:07.761Z,98759.75
2022-11-16T07:06:54.725Z,98758.13
2022-11-16T07:07:41.630Z,98757.50
2022-11-16T07:08:28.626Z,98744.66
2022-11-16T07:09:15.545Z,98754.41
2022-11-16T07:10:02.914Z,98746.09
2022-11-16T07:10:49.883Z,98748.59
2022-11-16T07:11:37.320Z,98742.78
2022-11-16T07:12:24.286Z,98742.38
2022-11-16T07:13:11.267Z,98743.00
2022-11-16T07:13:58.663Z,98744.03
2022-11-16T07:14:46.031Z,98744.47
2022-11-16T07:15:33.647Z,98749.84
2022-11-16T07:16:21.401Z,98745.50
2022-11-16T07:17:09.835Z,98736.16
2022-11-16T07:17:57.020Z,98741.53
2022-11-16T07:18:43.871Z,98745.72
2022-11-16T07:19:30.946Z,98748.59
2022-11-16T07:20:18.883Z,98750.87
2022-11-16T07:21:14.087Z,98752.13
2022-11-16T07:22:01.032Z,98754.00
2022-11-16T07:22:47.995Z,98746.53
2022-11-16T07:23:35.554Z,98747.78
2022-11-16T07:24:22.718Z,98753.16
2022-11-16T07:25:09.962Z,98749.22
2022-11-16T07:26:00.736Z,98750.69
2022-11-16T07:26:47.654Z,98753.59
2022-11-16T07:27:34.645Z,98752.97
2022-11-16T07:28:21.518Z,98757.31
2022-11-16T07:29:08.478Z,98755.03
2022-11-16T07:29:55.768Z,98757.94
2022-11-16T07:30:44.876Z,98752.34
2022-11-16T07:31:31.792Z,98752.34
2022-11-16T07:32:18.793Z,98749.22
2022-11-16T07:33:05.629Z,98751.72
2022-11-16T07:33:53.000Z,98745.50
2022-11-16T07:34:39.909Z,98744.88
2022-11-16T07:35:26.918Z,98753.19
2022-11-16T07:36:15.243Z,98748.19
2022-11-16T07:37:02.380Z,98747.97
2022-11-16T07:37:49.294Z,98750.28
2022-11-16T07:38:36.809Z,98742.81
2022-11-16T07:39:23.885Z,98748.41
2022-11-16T07:40:11.124Z,98740.12
2022-11-16T07:41:02.227Z,98749.22
2022-11-16T07:41:53.510Z,98746.34
2022-11-16T07:42:40.498Z,98741.56
2022-11-16T07:43:30.064Z,98734.28
2022-11-16T07:44:17.008Z,98735.75
2022-11-16T07:45:04.088Z,98734.28
2022-11-16T07:45:53.343Z,98739.66
2022-11-16T07:46:48.477Z,98735.09
2022-11-16T07:47:37.304Z,98733.66
2022-11-16T07:48:24.777Z,98731.56
2022-11-16T07:49:18.979Z,98730.53
2022-11-16T07:50:06.795Z,98724.91
2022-11-16T07:50:54.122Z,98724.47
2022-11-16T07:51:41.059Z,98720.72
2022-11-16T07:52:28.028Z,98717.59
2022-11-16T07:53:15.037Z,98716.56
2022-11-16T07:54:02.214Z,98716.34
2022-11-16T07:54:49.067Z,98724.22
2022-11-16T07:55:35.955Z,98718.19
2022-11-16T07:56:23.044Z,98718.81
2022-11-16T07:57:12.826Z,98725.69
2022-11-16T07:57:59.965Z,98716.53
2022-11-16T07:58:46.870Z,98715.31
2022-11-16T07:59:34.058Z,98719.44
2022-11-16T08:00:21.435Z,98715.06
2022-11-16T08:01:13.585Z,98716.91
2022-11-16T08:02:00.497Z,98710.47
2022-11-16T08:02:47.403Z,98716.72
2022-11-16T08:03:35.760Z,98717.16
2022-11-16T08:04:22.631Z,98711.56
2022-11-16T08:05:09.991Z,98717.59
2022-11-16T08:06:07.758Z,98713.66
2022-11-16T08:06:54.906Z,98722.97
2022-11-16T08:07:41.810Z,98709.94
2022-11-16T08:08:28.853Z,98713.66
2022-11-16T08:09:15.823Z,98712.37
2022-11-16T08:10:02.837Z,98711.53
2022-11-16T08:10:49.859Z,98704.25
2022-11-16T08:11:39.091Z,98708.81
2022-11-16T08:12:29.747Z,98707.97
2022-11-16T08:13:16.813Z,98707.75
2022-11-16T08:14:03.738Z,98704.81
2022-11-16T08:14:50.961Z,98704.16
2022-11-16T08:15:37.793Z,98697.47
2022-11-16T08:16:24.819Z,98695.19
2022-11-16T08:17:11.608Z,98701.03
2022-11-16T08:17:58.918Z,98696.31
2022-11-16T08:18:46.095Z,98697.31
2022-11-16T08:19:33.080Z,98697.47
2022-11-16T08:20:19.980Z,98692.06
2022-11-16T08:21:07.788Z,98693.13
2022-11-16T08:21:54.765Z,98691.53
2022-11-16T08:22:41.778Z,98700.06
2022-11-16T08:23:29.787Z,98693.88
2022-11-16T08:24:16.673Z,98691.34
2022-11-16T08:25:03.869Z,98689.03
2022-11-16T08:25:50.815Z,98692.16
2022-11-16T08:26:37.766Z,98685.50
2022-11-16T08:27:24.751Z,98686.34
2022-11-16T08:28:11.792Z,98687.69
2022-11-16T08:28:58.776Z,98684.00
2022-11-16T08:29:45.942Z,98691.50
2022-11-16T08:30:32.937Z,98689.63
2022-11-16T08:31:21.845Z,98688.38
2022-11-16T08:32:08.780Z,98690.25
2022-11-16T08:32:58.113Z,98693.97
2022-11-16T08:33:45.372Z,98689.56
2022-11-16T08:34:32.313Z,98690.59
2022-11-16T08:35:19.296Z,98690.16
2022-11-16T08:36:13.643Z,98689.75
2022-11-16T08:37:01.127Z,98691.69
2022-11-16T08:37:48.007Z,98692.31
2022-11-16T08:38:35.034Z,98690.87
2022-11-16T08:39:22.190Z,98686.50
2022-11-16T08:40:09.608Z,98685.47
2022-11-16T08:40:56.539Z,98691.66
2022-11-16T08:41:44.635Z,98684.38
2022-11-16T08:42:31.849Z,98692.06
2022-11-16T08:43:18.772Z,98694.72
2022-11-16T08:44:05.762Z,98689.09
2022-11-16T08:44:52.673Z,98697.19
2022-11-16T08:45:40.047Z,98692.97
2022-11-16T08:46:27.158Z,98698.13
2022-11-16T08:47:14.147Z,98701.72
2022-11-16T08:48:04.004Z,98693.62
2022-11-16T08:48:56.032Z,98698.97
2022-11-16T08:49:48.195Z,98698.75
2022-11-16T08:51:09.936Z,98696.78
2022-11-16T08:51:43.650Z,98695.09
2022-11-16T08:52:30.529Z,98698.63
2022-11-16T08:53:17.543Z,98695.97
2022-11-16T08:54:05.448Z,98695.91
2022-11-16T08:54:52.462Z,98704.03
2022-11-16T08:55:39.431Z,98692.16
2022-11-16T08:56:27.600Z,98703.56
2022-11-16T08:57:14.705Z,98699.19
2022-11-16T08:58:01.672Z,98703.53
2022-11-16T08:58:51.477Z,98695.41
2022-11-16T08:59:40.781Z,98705.47
2022-11-16T09:00:28.183Z,98696.94
2022-11-16T09:01:20.352Z,98704.19
2022-11-16T09:02:07.250Z,98697.50
2022-11-16T09:02:54.300Z,98703.31
2022-11-16T09:03:42.062Z,98700.41
2022-11-16T09:04:34.092Z,98701.06
2022-11-16T09:05:23.658Z,98695.81
2022-11-16T09:06:11.535Z,98701.22
2022-11-16T09:06:58.708Z,98698.47
2022-11-16T09:07:46.126Z,98703.19
2022-11-16T09:08:33.611Z,98703.00
2022-11-16T09:09:21.081Z,98696.56
2022-11-16T09:10:08.720Z,98700.53
2022-11-16T09:10:55.683Z,98701.31
2022-11-16T09:11:42.711Z,98701.16
2022-11-16T09:12:29.593Z,98695.91
2022-11-16T09:13:16.454Z,98702.69
2022-11-16T09:14:03.386Z,98703.09
2022-11-16T09:14:50.643Z,98701.81
2022-11-16T09:15:37.592Z,98697.28
2022-11-16T09:16:24.767Z,98698.06
2022-11-16T09:17:11.799Z,98698.44
2022-11-16T09:17:58.811Z,98703.78
2022-11-16T09:18:47.463Z,98706.16
2022-11-16T09:19:34.381Z,98699.31
2022-11-16T09:20:21.995Z,98698.66
2022-11-16T09:21:09.212Z,98698.28
2022-11-16T09:21:56.225Z,98706.28
2022-11-16T09:22:43.184Z,98699.31
2022-11-16T09:23:30.163Z,98696.63
2022-11-16T09:24:17.347Z,98701.75
2022-11-16T09:25:04.961Z,98702.34
2022-11-16T09:25:51.877Z,98703.16
2022-11-16T09:26:38.775Z,98696.94
2022-11-16T09:27:25.662Z,98692.19
2022-11-16T09:28:12.712Z,98690.53
2022-11-16T09:29:00.921Z,98693.16
2022-11-16T09:29:47.911Z,98694.38
2022-11-16T09:30:34.841Z,98698.50
2022-11-16T09:31:23.818Z,98700.66
2022-11-16T09:32:11.009Z,98698.56
2022-11-16T09:33:01.389Z,98690.22
2022-11-16T09:33:48.945Z,98695.31
2022-11-16T09:34:36.483Z,98695.31
2022-11-16T09:35:23.490Z,98689.28
2022-11-16T09:36:10.569Z,98695.41
2022-11-16T09:36:57.433Z,98704.06
2022-11-16T09:37:44.505Z,98699.44
2022-11-16T09:38:54.299Z,98694.62
2022-11-16T09:39:38.538Z,98692.22
2022-11-16T09:40:37.186Z,98691.47
2022-11-16T09:41:42.435Z,98696.28
2022-11-16T09:42:38.577Z,98692.13
2022-11-16T09:43:58.372Z,98691.63
2022-11-16T09:44:52.704Z,98693.28
2022-11-16T09:45:57.690Z,98691.50
2022-11-16T09:46:50.176Z,98687.38
2022-11-16T09:47:49.251Z,98681.69
2022-11-16T09:48:37.603Z,98686.44
2022-11-16T09:49:30.644Z,98674.56
2022-11-16T09:50:40.853Z,98677.19
2022-11-16T09:51:32.941Z,98668.31
2022-11-16T09:52:30.895Z,98678.22
2022-11-16T09:53:30.795Z,98671.00
2022-11-16T09:54:21.909Z,98674.00
2022-11-16T09:55:46.885Z,98669.84
2022-11-16T09:56:37.069Z,98665.09
2022-11-16T09:57:28.602Z,98666.44
2022-11-16T09:58:20.598Z,98672.19
2022-11-16T09:59:18.247Z,98666.19
2022-11-16T10:00:14.356Z,98664.88
2022-11-16T10:01:06.871Z,98661.72
2022-11-16T10:02:05.941Z,98665.56
2022-11-16T10:03:06.230Z,98661.97
2022-11-16T10:04:03.793Z,98662.56
2022-11-16T10:05:10.836Z,98662.03
2022-11-16T10:06:07.201Z,98660.97
2022-11-16T10:07:03.692Z,98661.63
2022-11-16T10:08:00.034Z,98657.25